createdAt,value
2018-09-28T00:02:20.611Z,79.90
2018-09-28T00:04:49.839Z,80.60
2018-09-28T00:07:19.041Z,80.70
2018-09-28T00:09:48.191Z,79.40
2018-09-28T00:12:18.366Z,79.60
2018-09-28T00:14:48.390Z,79.30
2018-09-28T00:17:17.503Z,79.40
2018-09-28T00:19:46.708Z,80.10
2018-09-28T00:22:16.047Z,79.20
2018-09-28T00:24:45.924Z,80.80
2018-09-28T00:27:15.402Z,80.70
2018-09-28T00:29:46.379Z,79.60
2018-09-28T00:32:15.639Z,79.50
2018-09-28T00:34:44.789Z,80.50
2018-09-28T00:37:14.711Z,81.50
2018-09-28T00:39:43.865Z,80.70
2018-09-28T00:42:13.043Z,81.40
2018-09-28T00:44:42.454Z,81.50
2018-09-28T00:47:11.657Z,81.60
2018-09-28T00:49:41.172Z,81.90
2018-09-28T00:52:10.334Z,80.60
2018-09-28T00:54:39.611Z,79.90
2018-09-28T00:57:08.785Z,82.00
2018-09-28T00:59:38.196Z,79.40
2018-09-28T01:02:07.440Z,80.00
2018-09-28T01:04:36.565Z,80.90
2018-09-28T01:07:09.215Z,80.80
2018-09-28T01:09:38.408Z,80.10
2018-09-28T01:12:07.561Z,80.50
2018-09-28T01:14:37.456Z,79.90
2018-09-28T01:17:06.683Z,79.80
2018-09-28T01:19:35.936Z,79.70
2018-09-28T01:22:05.230Z,79.70
2018-09-28T01:24:34.810Z,78.90
2018-09-28T01:27:04.729Z,78.80
2018-09-28T01:29:34.336Z,79.60
2018-09-28T01:32:03.605Z,79.40
2018-09-28T01:34:33.887Z,80.50
2018-09-28T01:37:03.628Z,80.90
2018-09-28T01:39:32.951Z,80.40
2018-09-28T01:42:02.286Z,80.50
2018-09-28T01:44:31.558Z,79.20
2018-09-28T01:47:00.737Z,80.40
2018-09-28T01:49:30.010Z,81.70
2018-09-28T01:51:59.134Z,82.20
2018-09-28T01:54:29.087Z,82.90
2018-09-28T01:56:58.267Z,82.40
2018-09-28T01:59:28.802Z,81.60
2018-09-28T02:01:58.379Z,80.90
2018-09-28T02:04:27.904Z,80.60
2018-09-28T02:06:57.329Z,81.10
2018-09-28T02:09:26.838Z,80.90
2018-09-28T02:11:56.529Z,80.70
2018-09-28T02:14:25.638Z,80.40
2018-09-28T02:16:54.823Z,80.70
2018-09-28T02:19:24.318Z,80.80
2018-09-28T02:21:53.498Z,81.30
2018-09-28T02:24:22.712Z,80.80
2018-09-28T02:26:51.927Z,80.80
2018-09-28T02:29:21.415Z,80.40
2018-09-28T02:31:51.358Z,80.30
2018-09-28T02:34:20.572Z,80.90
2018-09-28T02:36:50.237Z,81.90
2018-09-28T02:39:19.453Z,82.90
2018-09-28T02:41:48.822Z,82.10
2018-09-28T02:44:18.294Z,83.00
2018-09-28T02:46:47.462Z,82.20
2018-09-28T02:49:17.277Z,82.30
2018-09-28T02:51:46.779Z,81.30
2018-09-28T02:54:16.090Z,81.50
2018-09-28T02:56:45.567Z,81.60
2018-09-28T02:59:16.336Z,80.60
2018-09-28T03:01:45.576Z,81.30
2018-09-28T03:04:15.357Z,81.90
2018-09-28T03:06:44.571Z,81.40
2018-09-28T03:09:14.142Z,82.10
2018-09-28T03:11:43.334Z,82.90
2018-09-28T03:14:12.981Z,81.90
2018-09-28T03:16:42.164Z,81.20
2018-09-28T03:19:11.396Z,80.60
2018-09-28T03:21:40.811Z,79.50
2018-09-28T03:24:10.193Z,79.60
2018-09-28T03:26:39.329Z,79.50
2018-09-28T03:29:08.753Z,80.30
2018-09-28T03:31:38.017Z,79.30
2018-09-28T03:34:07.281Z,81.90
2018-09-28T03:36:36.473Z,81.40
2018-09-28T03:39:12.364Z,81.00
2018-09-28T03:41:41.782Z,79.90
2018-09-28T03:44:12.076Z,80.20
2018-09-28T03:46:41.452Z,80.40
2018-09-28T03:49:10.680Z,80.60
2018-09-28T03:51:40.202Z,79.00
2018-09-28T03:54:09.617Z,81.20
2018-09-28T03:56:39.270Z,80.30
2018-09-28T03:59:08.478Z,81.10
2018-09-28T04:01:37.840Z,80.00
2018-09-28T04:04:08.018Z,80.80
2018-09-28T04:06:37.267Z,80.40
2018-09-28T04:09:09.145Z,80.00
2018-09-28T04:11:38.363Z,79.50
2018-09-28T04:14:08.253Z,79.30
2018-09-28T04:16:37.472Z,80.20
2018-09-28T04:19:06.642Z,81.20
2018-09-28T04:21:36.065Z,81.40
2018-09-28T04:24:05.258Z,82.10
2018-09-28T04:26:34.523Z,81.70
2018-09-28T04:29:04.215Z,79.80
2018-09-28T04:31:34.268Z,79.90
2018-09-28T04:34:04.240Z,79.30
2018-09-28T04:36:33.397Z,79.80
2018-09-28T04:39:02.921Z,79.30
2018-09-28T04:41:32.722Z,82.20
2018-09-28T04:44:02.674Z,80.70
2018-09-28T04:46:31.905Z,79.40
2018-09-28T04:49:02.934Z,80.00
2018-09-28T04:51:32.798Z,80.30
2018-09-28T04:54:08.320Z,79.90
2018-09-28T04:56:44.281Z,79.30
2018-09-28T04:59:13.955Z,79.10
2018-09-28T05:01:50.068Z,79.20
2018-09-28T05:04:19.372Z,79.20
2018-09-28T05:06:51.474Z,78.80
2018-09-28T05:09:20.727Z,80.20
2018-09-28T05:11:49.988Z,82.00
2018-09-28T05:14:21.054Z,80.20
2018-09-28T05:16:50.403Z,82.50
2018-09-28T05:19:20.359Z,82.00
2018-09-28T05:21:49.649Z,80.70
2018-09-28T05:24:20.013Z,80.30
2018-09-28T05:26:49.295Z,79.60
2018-09-28T05:29:19.163Z,78.90
2018-09-28T05:31:49.190Z,78.40
2018-09-28T05:34:21.801Z,78.30
2018-09-28T05:36:53.182Z,78.00
2018-09-28T05:39:24.919Z,77.60
2018-09-28T05:41:55.074Z,77.70
2018-09-28T05:44:24.570Z,77.80
2018-09-28T05:46:54.354Z,77.20
2018-09-28T05:49:24.333Z,76.60
2018-09-28T05:51:54.552Z,77.40
2018-09-28T05:54:26.210Z,77.10
2018-09-28T05:56:57.799Z,76.70
2018-09-28T05:59:32.175Z,76.30
2018-09-28T06:02:07.042Z,76.30
2018-09-28T06:04:42.132Z,77.00
2018-09-28T06:07:13.018Z,76.90
2018-09-28T06:09:46.515Z,76.90
2018-09-28T06:12:16.055Z,77.10
2018-09-28T06:14:46.241Z,76.70
2018-09-28T06:17:16.003Z,76.30
2018-09-28T06:19:52.960Z,76.10
2018-09-28T06:22:23.189Z,75.40
2018-09-28T06:24:53.059Z,74.70
2018-09-28T06:27:23.718Z,75.90
2018-09-28T06:30:00.159Z,75.80
2018-09-28T06:32:30.164Z,74.10
2018-09-28T06:35:00.180Z,77.90
2018-09-28T06:37:30.485Z,75.60
2018-09-28T06:40:00.045Z,75.30
2018-09-28T06:42:30.398Z,75.50
2018-09-28T06:45:01.721Z,75.00
2018-09-28T06:47:40.136Z,74.80
2018-09-28T06:50:10.488Z,73.60
2018-09-28T06:52:39.725Z,74.10
2018-09-28T06:55:13.196Z,75.30
2018-09-28T06:57:43.309Z,75.80
2018-09-28T07:00:13.353Z,76.00
2018-09-28T07:02:45.221Z,76.30
2018-09-28T07:05:14.864Z,76.80
2018-09-28T07:07:44.496Z,76.70
2018-09-28T07:10:17.817Z,76.80
2018-09-28T07:12:47.236Z,76.90
2018-09-28T07:15:20.161Z,78.10
2018-09-28T07:17:51.901Z,78.00
2018-09-28T07:20:24.364Z,78.50
2018-09-28T07:22:54.938Z,77.70
2018-09-28T07:25:24.193Z,78.20
2018-09-28T07:27:54.730Z,78.10
2018-09-28T07:30:24.741Z,77.50
2018-09-28T07:32:55.096Z,77.40
2018-09-28T07:35:25.287Z,78.40
2018-09-28T07:37:57.788Z,77.70
2018-09-28T07:40:29.215Z,77.90
2018-09-28T07:42:59.562Z,76.80
2018-09-28T07:45:29.311Z,74.60
2018-09-28T07:47:59.717Z,74.00
2018-09-28T07:50:29.834Z,73.80
2018-09-28T07:52:59.381Z,72.50
2018-09-28T07:55:29.664Z,74.40
2018-09-28T07:58:04.031Z,75.20
2018-09-28T08:00:34.100Z,74.90
2018-09-28T08:03:05.874Z,76.70
2018-09-28T08:05:38.263Z,78.70
2018-09-28T08:08:08.716Z,80.50
2018-09-28T08:10:40.616Z,79.90
2018-09-28T08:13:11.391Z,80.20
2018-09-28T08:15:42.298Z,81.80
2018-09-28T08:18:12.185Z,83.90
2018-09-28T08:20:45.880Z,83.90
2018-09-28T08:23:15.756Z,85.40
2018-09-28T08:25:47.806Z,87.10
2018-09-28T08:28:17.394Z,86.40
2018-09-28T08:30:48.184Z,86.50
2018-09-28T08:33:17.905Z,88.60
2018-09-28T08:35:49.671Z,88.70
2018-09-28T08:38:19.142Z,88.70
2018-09-28T08:40:50.657Z,90.00
2018-09-28T08:43:27.857Z,89.60
2018-09-28T08:46:07.557Z,89.30
2018-09-28T08:48:46.393Z,90.90
2018-09-28T08:51:20.575Z,91.40
2018-09-28T08:53:53.149Z,91.50
2018-09-28T08:56:26.292Z,90.50
2018-09-28T08:58:55.962Z,90.30
2018-09-28T09:01:25.725Z,90.30
2018-09-28T09:03:57.123Z,89.80
2018-09-28T09:06:40.406Z,89.80
2018-09-28T09:09:17.200Z,90.60
2018-09-28T09:11:48.298Z,90.40
2018-09-28T09:14:20.751Z,89.60
2018-09-28T09:16:50.414Z,90.50
2018-09-28T09:19:20.587Z,91.20
2018-09-28T09:21:51.654Z,91.60
2018-09-28T09:24:21.274Z,91.30
2018-09-28T09:26:54.121Z,90.80
2018-09-28T09:29:25.106Z,92.20
2018-09-28T09:31:56.516Z,92.70
2018-09-28T09:34:27.091Z,92.70
2018-09-28T09:36:57.080Z,93.80
2018-09-28T09:39:26.846Z,93.20
2018-09-28T09:41:56.993Z,94.20
2018-09-28T09:44:27.699Z,94.00
2018-09-28T09:46:57.632Z,94.10
2018-09-28T09:49:27.594Z,93.50
2018-09-28T09:51:58.381Z,94.70
2018-09-28T09:54:28.437Z,96.50
2018-09-28T09:56:59.292Z,97.40
2018-09-28T09:59:29.285Z,97.80
2018-09-28T10:02:04.097Z,99.90
2018-09-28T10:04:34.209Z,99.90
2018-09-28T10:07:07.253Z,99.90
2018-09-28T10:09:36.962Z,99.90
2018-09-28T10:12:06.820Z,99.90
2018-09-28T10:14:37.184Z,99.90
2018-09-28T10:17:07.068Z,99.90
2018-09-28T10:19:38.061Z,99.90
2018-09-28T10:22:08.644Z,99.90
2018-09-28T10:24:41.561Z,99.90
2018-09-28T10:27:13.360Z,99.90
2018-09-28T10:29:49.126Z,99.90
2018-09-28T10:32:21.204Z,99.90
2018-09-28T10:34:50.588Z,99.90
2018-09-28T10:37:22.328Z,99.90
2018-09-28T10:41:23.524Z,99.90
2018-09-28T10:43:53.805Z,99.90
2018-09-28T10:46:25.792Z,99.90
2018-09-28T10:48:55.150Z,99.90
2018-09-28T10:51:27.279Z,99.90
2018-09-28T10:53:57.214Z,99.90
2018-09-28T10:56:27.183Z,99.90
2018-09-28T10:58:57.737Z,99.90
2018-09-28T11:01:27.735Z,99.90
2018-09-28T11:03:58.830Z,99.90
2018-09-28T11:06:29.602Z,99.90
2018-09-28T11:09:00.824Z,99.90
2018-09-28T11:11:32.433Z,99.90
2018-09-28T11:14:02.791Z,99.90
2018-09-28T11:16:34.650Z,99.90
2018-09-28T11:19:06.906Z,99.90
2018-09-28T11:21:36.818Z,99.90
2018-09-28T11:24:07.558Z,99.90
2018-09-28T11:26:38.415Z,99.90
2018-09-28T11:29:09.336Z,99.90
2018-09-28T11:31:39.463Z,99.90
2018-09-28T11:34:09.944Z,99.90
2018-09-28T11:36:41.255Z,99.90
2018-09-28T11:39:12.221Z,99.90
2018-09-28T11:41:41.984Z,99.90
2018-09-28T11:44:13.434Z,99.90
2018-09-28T11:46:44.302Z,99.90
2018-09-28T11:49:14.847Z,99.90
2018-09-28T11:51:44.332Z,99.90
2018-09-28T11:54:13.772Z,99.90
2018-09-28T11:56:43.342Z,99.90
2018-09-28T11:59:15.431Z,99.90
2018-09-28T12:01:46.102Z,99.90
2018-09-28T12:04:15.790Z,99.90
2018-09-28T12:06:45.549Z,99.90
2018-09-28T12:09:15.375Z,99.90
2018-09-28T12:11:45.124Z,99.90
2018-09-28T12:14:15.440Z,99.90
2018-09-28T12:16:45.194Z,99.90
2018-09-28T12:19:17.747Z,99.90
2018-09-28T12:21:47.402Z,99.90
2018-09-28T12:24:16.710Z,99.90
2018-09-28T12:26:46.954Z,99.90
2018-09-28T12:29:16.123Z,99.90
2018-09-28T12:31:49.334Z,99.90
2018-09-28T12:34:19.409Z,99.90
2018-09-28T12:36:49.805Z,99.90
2018-09-28T12:39:20.738Z,99.90
2018-09-28T12:41:50.705Z,99.90
2018-09-28T12:44:20.721Z,99.90
2018-09-28T12:46:51.998Z,99.90
2018-09-28T12:49:21.253Z,99.90
2018-09-28T12:51:53.733Z,99.90
2018-09-28T12:54:26.200Z,99.90
2018-09-28T12:56:57.629Z,99.90
2018-09-28T12:59:27.709Z,99.90
2018-09-28T13:01:58.521Z,99.90
2018-09-28T13:04:30.301Z,99.90
2018-09-28T13:07:02.724Z,99.90
2018-09-28T13:09:32.922Z,99.90
2018-09-28T13:12:12.734Z,99.90
2018-09-28T13:14:42.371Z,99.90
2018-09-28T13:17:12.331Z,99.90
2018-09-28T13:19:42.490Z,99.90
2018-09-28T13:22:11.997Z,99.90
2018-09-28T13:24:42.516Z,99.90
2018-09-28T13:27:12.082Z,99.90
2018-09-28T13:29:43.738Z,99.90
2018-09-28T13:32:15.867Z,99.90
2018-09-28T13:34:45.417Z,99.90
2018-09-28T13:37:14.874Z,99.90
2018-09-28T13:39:44.490Z,99.90
2018-09-28T13:42:14.194Z,99.90
2018-09-28T13:44:43.579Z,99.90
2018-09-28T13:47:13.286Z,99.90
2018-09-28T13:49:42.536Z,99.90
2018-09-28T13:52:12.251Z,99.90
2018-09-28T13:54:42.086Z,99.90
2018-09-28T13:57:12.378Z,99.90
2018-09-28T13:59:42.729Z,99.90
2018-09-28T14:02:12.948Z,99.90
2018-09-28T14:04:44.884Z,99.90
2018-09-28T14:07:16.315Z,99.90
2018-09-28T14:12:31.231Z,99.90
2018-09-28T14:15:01.389Z,99.90
2018-09-28T14:17:34.895Z,99.90
2018-09-28T14:20:04.398Z,99.90
2018-09-28T14:22:35.695Z,99.90
2018-09-28T14:25:16.317Z,99.90
2018-09-28T14:27:46.815Z,99.90
2018-09-28T14:30:17.863Z,99.90
2018-09-28T14:32:49.624Z,99.90
2018-09-28T14:35:20.111Z,99.90
2018-09-28T14:37:50.203Z,99.90
2018-09-28T14:40:22.788Z,99.90
2018-09-28T14:42:52.514Z,99.90
2018-09-28T14:45:22.488Z,99.90
2018-09-28T14:47:52.764Z,99.90
2018-09-28T14:50:28.103Z,99.90
2018-09-28T14:52:59.451Z,99.90
2018-09-28T14:55:29.284Z,99.90
2018-09-28T14:57:59.095Z,99.90
2018-09-28T15:00:28.888Z,99.90
2018-09-28T15:02:58.149Z,99.90
2018-09-28T15:05:28.030Z,99.90
2018-09-28T15:08:01.414Z,99.90
2018-09-28T15:10:30.971Z,99.90
2018-09-28T15:13:02.508Z,99.90
2018-09-28T15:15:32.496Z,99.90
2018-09-28T15:18:02.751Z,99.90
2018-09-28T15:20:34.210Z,99.90
2018-09-28T15:23:05.551Z,99.90
2018-09-28T15:25:35.440Z,99.90
2018-09-28T15:28:08.271Z,99.90
2018-09-28T15:30:37.681Z,99.90
2018-09-28T15:33:09.074Z,99.90
2018-09-28T15:35:39.323Z,99.90
2018-09-28T15:38:08.721Z,99.90
2018-09-28T15:40:38.558Z,99.90
2018-09-28T15:43:11.429Z,99.90
2018-09-28T15:45:48.846Z,99.90
2018-09-28T15:48:24.309Z,99.90
2018-09-28T15:50:57.534Z,99.90
2018-09-28T15:53:29.082Z,99.70
2018-09-28T15:56:01.701Z,99.60
2018-09-28T15:58:32.612Z,99.50
2018-09-28T16:01:04.280Z,99.90
2018-09-28T16:03:34.559Z,99.80
2018-09-28T16:06:04.100Z,97.80
2018-09-28T16:08:34.850Z,96.10
2018-09-28T16:11:08.194Z,98.50
2018-09-28T16:13:38.289Z,99.10
2018-09-28T16:16:10.765Z,97.50
2018-09-28T16:18:44.776Z,97.40
2018-09-28T16:21:19.835Z,97.80
2018-09-28T16:23:53.079Z,97.30
2018-09-28T16:26:23.013Z,98.80
2018-09-28T16:28:58.206Z,99.50
2018-09-28T16:31:34.750Z,98.60
2018-09-28T16:34:09.917Z,98.50
2018-09-28T16:36:45.002Z,98.60
2018-09-28T16:39:20.264Z,98.40
2018-09-28T16:41:55.732Z,98.50
2018-09-28T16:44:29.521Z,98.10
2018-09-28T16:47:00.479Z,98.90
2018-09-28T16:49:34.104Z,99.40
2018-09-28T16:52:07.695Z,98.80
2018-09-28T16:54:38.705Z,99.20
2018-09-28T16:57:11.723Z,99.10
2018-09-28T16:59:41.049Z,99.40
2018-09-28T17:02:11.735Z,99.50
2018-09-28T17:04:42.394Z,99.60
2018-09-28T17:07:13.341Z,98.30
2018-09-28T17:09:42.757Z,99.00
2018-09-28T17:12:12.393Z,99.50
2018-09-28T17:14:43.729Z,99.10
2018-09-28T17:17:13.681Z,99.50
2018-09-28T17:19:43.224Z,99.00
2018-09-28T17:22:14.401Z,99.60
2018-09-28T17:24:44.171Z,99.90
2018-09-28T17:27:14.435Z,99.90
2018-09-28T17:29:43.652Z,99.90
2018-09-28T17:32:13.106Z,99.90
2018-09-28T17:34:45.360Z,99.90
2018-09-28T17:37:20.330Z,99.90
2018-09-28T17:39:50.251Z,99.90
2018-09-28T17:42:20.862Z,99.90
2018-09-28T17:44:50.397Z,99.90
2018-09-28T17:47:20.566Z,99.20
2018-09-28T17:49:53.042Z,99.60
2018-09-28T17:52:22.309Z,99.80
2018-09-28T17:54:53.665Z,99.40
2018-09-28T17:57:23.606Z,99.70
2018-09-28T17:59:53.074Z,99.80
2018-09-28T18:02:23.558Z,99.00
2018-09-28T18:04:54.325Z,99.10
2018-09-28T18:07:24.209Z,99.30
2018-09-28T18:09:59.561Z,99.30
2018-09-28T18:12:30.166Z,99.10
2018-09-28T18:15:00.806Z,99.70
2018-09-28T18:17:34.457Z,99.90
2018-09-28T18:20:05.775Z,99.20
2018-09-28T18:22:36.791Z,99.80
2018-09-28T18:25:06.482Z,99.70
2018-09-28T18:27:37.997Z,98.80
2018-09-28T18:30:09.242Z,99.30
2018-09-28T18:32:40.304Z,99.40
2018-09-28T18:35:14.223Z,98.80
2018-09-28T18:37:44.759Z,99.80
2018-09-28T18:40:18.519Z,99.90
2018-09-28T18:42:48.358Z,99.90
2018-09-28T18:45:19.560Z,99.70
2018-09-28T18:47:49.116Z,99.20
2018-09-28T18:50:18.678Z,99.50
2018-09-28T18:52:50.322Z,99.70
2018-09-28T18:55:22.864Z,98.50
2018-09-28T18:57:52.690Z,98.40
2018-09-28T19:00:22.717Z,98.20
2018-09-28T19:05:39.809Z,98.40
2018-09-28T19:08:10.764Z,99.50
2018-09-28T19:11:14.175Z,99.10
2018-09-28T19:13:49.346Z,98.00
2018-09-28T19:16:19.446Z,98.10
2018-09-28T19:19:00.698Z,97.90
2018-09-28T19:21:31.131Z,96.90
2018-09-28T19:24:02.266Z,96.80
2018-09-28T19:26:35.439Z,96.70
2018-09-28T19:29:06.538Z,96.80
2018-09-28T19:31:37.744Z,97.20
2018-09-28T19:34:07.660Z,96.90
2018-09-28T19:36:38.186Z,97.00
2018-09-28T19:39:13.609Z,95.70
2018-09-28T19:41:50.920Z,98.30
2018-09-28T19:44:24.176Z,96.30
2018-09-28T19:46:55.088Z,97.50
2018-09-28T19:49:26.314Z,97.30
2018-09-28T19:51:57.174Z,98.60
2018-09-28T19:54:29.668Z,97.10
2018-09-28T19:57:00.365Z,95.80
2018-09-28T19:59:32.814Z,95.80
2018-09-28T20:02:04.767Z,96.20
2018-09-28T20:04:36.090Z,95.60
2018-09-28T20:07:13.812Z,97.00
2018-09-28T20:09:45.168Z,96.30
2018-09-28T20:12:18.018Z,96.30
2018-09-28T20:14:49.130Z,95.10
2018-09-28T20:17:18.720Z,93.70
2018-09-28T20:19:49.729Z,93.60
2018-09-28T20:22:23.202Z,94.10
2018-09-28T20:25:01.661Z,93.40
2018-09-28T20:27:32.756Z,94.00
2018-09-28T20:30:03.565Z,93.50
2018-09-28T20:32:33.537Z,93.50
2018-09-28T20:35:03.638Z,92.50
2018-09-28T20:37:36.390Z,92.90
2018-09-28T20:40:07.390Z,93.00
2018-09-28T20:42:44.630Z,91.70
2018-09-28T20:45:14.678Z,93.00
2018-09-28T20:47:46.470Z,92.40
2018-09-28T20:50:18.069Z,91.40
2018-09-28T20:52:49.246Z,91.90
2018-09-28T20:55:18.397Z,92.20
2018-09-28T20:57:47.776Z,91.50
2018-09-28T21:00:17.281Z,91.20
2018-09-28T21:02:46.994Z,91.00
2018-09-28T21:05:16.332Z,91.00
2018-09-28T21:07:48.707Z,91.40
2018-09-28T21:10:18.854Z,91.20
2018-09-28T21:12:51.629Z,91.40
2018-09-28T21:15:21.247Z,91.50
2018-09-28T21:17:51.229Z,92.00
2018-09-28T21:20:23.304Z,91.90
2018-09-28T21:22:53.384Z,91.90
2018-09-28T21:25:25.986Z,91.60
2018-09-28T21:27:55.350Z,91.80
2018-09-28T21:30:25.564Z,91.20
2018-09-28T21:32:54.903Z,91.00
2018-09-28T21:35:24.117Z,91.30
2018-09-28T21:37:54.734Z,90.70
2018-09-28T21:40:24.064Z,90.70
2018-09-28T21:42:54.316Z,90.60
2018-09-28T21:45:28.189Z,90.20
2018-09-28T21:47:58.777Z,91.30
2018-09-28T21:50:29.327Z,90.70
2018-09-28T21:52:59.015Z,90.40
2018-09-28T21:55:28.644Z,90.80
2018-09-28T21:57:58.204Z,90.20
2018-09-28T22:00:27.545Z,90.40
2018-09-28T22:02:58.348Z,90.20
2018-09-28T22:05:28.471Z,90.00
2018-09-28T22:07:58.199Z,89.70
2018-09-28T22:10:27.420Z,89.60
2018-09-28T22:12:57.722Z,89.70
2018-09-28T22:15:27.745Z,90.00
2018-09-28T22:17:57.883Z,90.00
2018-09-28T22:20:28.028Z,90.20
2018-09-28T22:22:57.306Z,89.80
2018-09-28T22:25:28.017Z,90.20
2018-09-28T22:27:57.818Z,89.00
2018-09-28T22:30:27.185Z,88.80
2018-09-28T22:32:56.623Z,88.10
2018-09-28T22:35:26.702Z,89.20
2018-09-28T22:37:59.107Z,90.30
2018-09-28T22:40:28.321Z,88.80
2018-09-28T22:42:57.989Z,89.40
2018-09-28T22:45:27.337Z,87.30
2018-09-28T22:47:57.591Z,88.20
2018-09-28T22:50:28.681Z,88.30
2018-09-28T22:53:01.291Z,89.10
2018-09-28T22:55:32.703Z,89.80
2018-09-28T22:58:02.216Z,88.80
2018-09-28T23:00:32.735Z,88.90
2018-09-28T23:03:02.950Z,89.30
2018-09-28T23:05:33.455Z,88.10
2018-09-28T23:08:02.613Z,87.50
2018-09-28T23:10:32.659Z,88.50
2018-09-28T23:13:02.493Z,88.50
2018-09-28T23:15:34.759Z,88.90
2018-09-28T23:18:06.300Z,88.20
2018-09-28T23:20:35.927Z,88.30
2018-09-28T23:23:05.129Z,88.90
2018-09-28T23:25:34.242Z,88.30
2018-09-28T23:28:03.760Z,88.40
2018-09-28T23:30:33.031Z,88.20
2018-09-28T23:33:02.191Z,88.20
2018-09-28T23:35:31.574Z,88.10
2018-09-28T23:38:00.762Z,88.30
2018-09-28T23:40:30.722Z,88.20
2018-09-28T23:43:00.283Z,86.80
2018-09-28T23:45:29.455Z,86.70
2018-09-28T23:48:00.182Z,87.70
2018-09-28T23:50:29.747Z,89.00
2018-09-28T23:52:59.641Z,89.60
2018-09-28T23:55:29.055Z,89.00
2018-09-28T23:57:58.676Z,87.80
